createdAt,value
2023-05-12T00:00:27.908Z,7.10
2023-05-12T00:00:59.477Z,5.83
2023-05-12T00:01:30.879Z,6.70
2023-05-12T00:02:03.399Z,7.25
2023-05-12T00:02:34.872Z,11.43
2023-05-12T00:03:06.643Z,6.68
2023-05-12T00:03:38.223Z,7.10
2023-05-12T00:04:10.180Z,6.05
2023-05-12T00:04:41.782Z,6.90
2023-05-12T00:05:13.244Z,5.80
2023-05-12T00:05:44.855Z,6.00
2023-05-12T00:06:18.192Z,6.60
2023-05-12T00:06:51.209Z,6.60
2023-05-12T00:07:23.076Z,6.68
2023-05-12T00:07:55.231Z,6.22
2023-05-12T00:08:26.748Z,7.10
2023-05-12T00:08:58.212Z,6.47
2023-05-12T00:09:29.676Z,7.88
2023-05-12T00:10:01.376Z,7.05
2023-05-12T00:10:32.881Z,10.25
2023-05-12T00:11:04.429Z,6.22
2023-05-12T00:11:38.010Z,7.77
2023-05-12T00:12:09.810Z,7.18
2023-05-12T00:12:41.582Z,6.15
2023-05-12T00:13:13.094Z,6.40
2023-05-12T00:13:44.843Z,7.88
2023-05-12T00:14:16.408Z,8.00
2023-05-12T00:14:47.840Z,6.22
2023-05-12T00:15:20.000Z,7.35
2023-05-12T00:15:51.615Z,7.00
2023-05-12T00:16:23.440Z,6.57
2023-05-12T00:16:54.904Z,6.13
2023-05-12T00:17:27.923Z,7.00
2023-05-12T00:17:59.557Z,5.88
2023-05-12T00:18:31.259Z,6.65
2023-05-12T00:19:02.818Z,5.82
2023-05-12T00:19:36.487Z,6.80
2023-05-12T00:20:08.480Z,5.15
2023-05-12T00:20:40.190Z,7.40
2023-05-12T00:21:12.407Z,5.82
2023-05-12T00:21:44.237Z,6.78
2023-05-12T00:22:17.034Z,6.70
2023-05-12T00:22:48.457Z,6.68
2023-05-12T00:23:19.826Z,5.95
2023-05-12T00:23:51.199Z,7.10
2023-05-12T00:24:22.626Z,5.43
2023-05-12T00:24:54.041Z,6.53
2023-05-12T00:25:25.612Z,6.80
2023-05-12T00:25:57.120Z,7.18
2023-05-12T00:26:28.783Z,5.72
2023-05-12T00:27:00.840Z,6.95
2023-05-12T00:27:33.361Z,6.57
2023-05-12T00:28:05.642Z,6.70
2023-05-12T00:28:37.026Z,6.85
2023-05-12T00:29:08.447Z,5.95
2023-05-12T00:29:40.229Z,6.45
2023-05-12T00:30:11.975Z,5.90
2023-05-12T00:30:43.623Z,6.10
2023-05-12T00:31:15.822Z,5.90
2023-05-12T00:31:47.462Z,7.88
2023-05-12T00:32:19.075Z,5.82
2023-05-12T00:32:50.962Z,5.80
2023-05-12T00:33:22.808Z,5.88
2023-05-12T00:33:54.370Z,6.53
2023-05-12T00:34:27.464Z,6.07
2023-05-12T00:35:00.109Z,12.52
2023-05-12T00:35:35.481Z,7.00
2023-05-12T00:36:07.848Z,5.57
2023-05-12T00:36:40.189Z,5.82
2023-05-12T00:37:11.683Z,5.97
2023-05-12T00:37:43.476Z,8.10
2023-05-12T00:38:14.950Z,5.97
2023-05-12T00:38:46.559Z,6.20
2023-05-12T00:39:18.239Z,5.88
2023-05-12T00:39:49.787Z,6.32
2023-05-12T00:40:21.215Z,5.93
2023-05-12T00:40:53.138Z,6.88
2023-05-12T00:41:24.480Z,6.53
2023-05-12T00:41:59.211Z,7.78
2023-05-12T00:42:30.763Z,5.53
2023-05-12T00:43:03.117Z,5.35
2023-05-12T00:43:34.526Z,5.73
2023-05-12T00:44:05.955Z,6.03
2023-05-12T00:44:37.601Z,5.20
2023-05-12T00:45:09.425Z,5.10
2023-05-12T00:45:40.911Z,6.00
2023-05-12T00:46:12.550Z,4.82
2023-05-12T00:46:44.019Z,5.88
2023-05-12T00:47:15.754Z,6.45
2023-05-12T00:47:47.452Z,5.95
2023-05-12T00:48:19.552Z,5.70
2023-05-12T00:48:51.694Z,5.00
2023-05-12T00:49:25.638Z,6.10
2023-05-12T00:49:57.108Z,5.45
2023-05-12T00:50:28.617Z,5.97
2023-05-12T00:51:02.084Z,5.70
2023-05-12T00:51:34.060Z,6.50
2023-05-12T00:52:08.419Z,5.57
2023-05-12T00:52:40.173Z,5.38
2023-05-12T00:53:12.854Z,5.80
2023-05-12T00:53:50.046Z,4.82
2023-05-12T00:54:22.634Z,5.67
2023-05-12T00:54:54.693Z,5.63
2023-05-12T00:55:26.878Z,5.47
2023-05-12T00:55:58.630Z,5.80
2023-05-12T00:56:35.442Z,5.90
2023-05-12T00:57:06.887Z,5.90
2023-05-12T00:57:38.837Z,7.65
2023-05-12T00:58:10.325Z,5.22
2023-05-12T00:58:41.768Z,5.95
2023-05-12T00:59:13.302Z,5.65
2023-05-12T00:59:45.985Z,5.23
2023-05-12T01:00:18.662Z,5.72
2023-05-12T01:00:50.629Z,6.38
2023-05-12T01:01:24.026Z,6.47
2023-05-12T01:01:56.428Z,6.20
2023-05-12T01:02:28.974Z,5.88
2023-05-12T01:03:00.984Z,7.00
2023-05-12T01:03:32.604Z,5.78
2023-05-12T01:04:04.279Z,6.70
2023-05-12T01:04:36.202Z,5.70
2023-05-12T01:05:10.033Z,5.50
2023-05-12T01:05:51.045Z,7.65
2023-05-12T01:06:30.057Z,8.52
2023-05-12T01:07:12.601Z,5.65
2023-05-12T01:07:46.701Z,6.05
2023-05-12T01:08:20.222Z,5.90
2023-05-12T01:08:53.125Z,6.18
2023-05-12T01:09:24.960Z,6.45
2023-05-12T01:09:57.186Z,5.47
2023-05-12T01:10:28.797Z,8.38
2023-05-12T01:11:00.312Z,6.20
2023-05-12T01:11:31.750Z,5.55
2023-05-12T01:12:03.632Z,6.75
2023-05-12T01:12:35.019Z,5.03
2023-05-12T01:13:06.720Z,5.07
2023-05-12T01:13:41.099Z,5.45
2023-05-12T01:14:12.711Z,5.70
2023-05-12T01:14:44.172Z,6.35
2023-05-12T01:15:15.963Z,6.13
2023-05-12T01:15:48.301Z,5.43
2023-05-12T01:16:26.201Z,5.87
2023-05-12T01:17:01.979Z,6.20
2023-05-12T01:17:36.445Z,5.60
2023-05-12T01:18:10.678Z,5.22
2023-05-12T01:18:49.791Z,5.45
2023-05-12T01:19:49.509Z,5.28
2023-05-12T01:20:23.858Z,6.97
2023-05-12T01:20:56.535Z,5.47
2023-05-12T01:21:28.066Z,5.10
2023-05-12T01:22:00.444Z,5.43
2023-05-12T01:22:34.166Z,5.67
2023-05-12T01:23:06.784Z,5.75
2023-05-12T01:23:44.543Z,5.28
2023-05-12T01:24:19.924Z,5.60
2023-05-12T01:24:55.419Z,5.30
2023-05-12T01:25:31.079Z,5.88
2023-05-12T01:26:06.683Z,5.72
2023-05-12T01:26:38.743Z,5.93
2023-05-12T01:27:10.727Z,5.60
2023-05-12T01:27:43.168Z,4.38
2023-05-12T01:28:16.269Z,4.87
2023-05-12T01:28:48.247Z,5.50
2023-05-12T01:29:21.077Z,6.80
2023-05-12T01:30:01.992Z,7.53
2023-05-12T01:30:34.389Z,5.93
2023-05-12T01:31:07.729Z,5.70
2023-05-12T01:31:39.313Z,5.85
2023-05-12T01:32:11.057Z,5.47
2023-05-12T01:32:42.777Z,6.03
2023-05-12T01:33:14.337Z,4.72
2023-05-12T01:33:45.746Z,6.37
2023-05-12T01:34:18.523Z,6.28
2023-05-12T01:34:51.070Z,5.43
2023-05-12T01:35:22.475Z,5.97
2023-05-12T01:35:53.909Z,5.95
2023-05-12T01:36:25.436Z,5.90
2023-05-12T01:36:57.389Z,5.50
2023-05-12T01:37:29.021Z,5.95
2023-05-12T01:38:00.829Z,6.43
2023-05-12T01:38:32.942Z,5.72
2023-05-12T01:39:04.386Z,7.47
2023-05-12T01:39:36.601Z,5.78
2023-05-12T01:40:08.611Z,5.25
2023-05-12T01:40:39.990Z,6.35
2023-05-12T01:41:11.603Z,5.90
2023-05-12T01:41:48.725Z,5.75
2023-05-12T01:42:20.153Z,5.38
2023-05-12T01:42:51.536Z,8.10
2023-05-12T01:43:22.989Z,5.65
2023-05-12T01:43:54.410Z,5.68
2023-05-12T01:44:27.190Z,4.93
2023-05-12T01:44:58.554Z,4.93
2023-05-12T01:45:30.092Z,5.57
2023-05-12T01:46:01.634Z,5.63
2023-05-12T01:46:33.135Z,5.32
2023-05-12T01:47:04.814Z,5.40
2023-05-12T01:47:36.514Z,5.38
2023-05-12T01:48:08.083Z,6.53
2023-05-12T01:48:39.523Z,5.57
2023-05-12T01:49:10.909Z,5.13
2023-05-12T01:49:42.415Z,4.77
2023-05-12T01:50:13.770Z,4.72
2023-05-12T01:50:45.424Z,5.03
2023-05-12T01:51:17.355Z,4.95
2023-05-12T01:51:48.863Z,5.18
2023-05-12T01:52:20.907Z,4.35
2023-05-12T01:52:52.237Z,5.95
2023-05-12T01:53:25.950Z,5.07
2023-05-12T01:53:57.723Z,5.57
2023-05-12T01:54:29.618Z,5.07
2023-05-12T01:55:01.040Z,5.37
2023-05-12T01:55:32.469Z,5.00
2023-05-12T01:56:04.127Z,5.03
2023-05-12T01:56:35.675Z,5.68
2023-05-12T01:57:07.070Z,5.60
2023-05-12T01:57:38.529Z,5.43
2023-05-12T01:58:09.889Z,5.45
2023-05-12T01:58:41.427Z,5.15
2023-05-12T01:59:12.873Z,4.53
2023-05-12T01:59:44.257Z,4.95
2023-05-12T02:00:16.210Z,4.47
2023-05-12T02:00:47.806Z,4.10
2023-05-12T02:01:19.212Z,5.18
2023-05-12T02:01:50.794Z,8.55
2023-05-12T02:02:22.229Z,6.60
2023-05-12T02:02:53.905Z,5.25
2023-05-12T02:03:25.474Z,7.75
2023-05-12T02:03:57.388Z,4.57
2023-05-12T02:04:28.963Z,6.55
2023-05-12T02:05:00.630Z,4.57
2023-05-12T02:05:32.012Z,4.13
2023-05-12T02:06:03.603Z,5.15
2023-05-12T02:06:35.021Z,4.90
2023-05-12T02:07:06.427Z,4.88
2023-05-12T02:07:38.642Z,5.15
2023-05-12T02:08:10.061Z,5.97
2023-05-12T02:08:41.671Z,3.95
2023-05-12T02:09:13.295Z,4.25
2023-05-12T02:09:44.690Z,4.35
2023-05-12T02:10:16.731Z,3.95
2023-05-12T02:10:48.305Z,4.37
2023-05-12T02:11:19.981Z,4.35
2023-05-12T02:11:51.735Z,4.60
2023-05-12T02:12:23.126Z,3.92
2023-05-12T02:12:54.587Z,4.00
2023-05-12T02:13:26.124Z,3.78
2023-05-12T02:13:58.509Z,4.03
2023-05-12T02:14:29.904Z,3.80
2023-05-12T02:15:01.577Z,4.50
2023-05-12T02:15:32.912Z,4.57
2023-05-12T02:16:05.059Z,3.60
2023-05-12T02:16:36.725Z,4.43
2023-05-12T02:17:08.612Z,4.05
2023-05-12T02:17:40.046Z,4.22
2023-05-12T02:18:11.729Z,5.00
2023-05-12T02:18:43.148Z,4.13
2023-05-12T02:19:14.573Z,3.72
2023-05-12T02:19:46.121Z,4.63
2023-05-12T02:20:17.726Z,3.20
2023-05-12T02:20:49.686Z,5.53
2023-05-12T02:21:21.154Z,3.73
2023-05-12T02:21:52.641Z,3.80
2023-05-12T02:22:24.011Z,3.85
2023-05-12T02:22:55.583Z,3.80
2023-05-12T02:23:26.968Z,3.78
2023-05-12T02:23:58.324Z,4.93
2023-05-12T02:24:29.738Z,3.95
2023-05-12T02:25:01.386Z,3.90
2023-05-12T02:25:32.815Z,3.60
2023-05-12T02:26:04.295Z,3.92
2023-05-12T02:26:35.662Z,5.27
2023-05-12T02:27:07.060Z,4.38
2023-05-12T02:27:38.479Z,3.65
2023-05-12T02:28:11.712Z,3.83
2023-05-12T02:28:43.237Z,3.80
2023-05-12T02:29:14.651Z,3.95
2023-05-12T02:29:46.314Z,3.97
2023-05-12T02:30:18.133Z,3.50
2023-05-12T02:30:51.033Z,3.85
2023-05-12T02:31:22.725Z,4.00
2023-05-12T02:31:54.327Z,3.77
2023-05-12T02:32:28.134Z,3.47
2023-05-12T02:32:59.589Z,5.45
2023-05-12T02:33:31.056Z,5.22
2023-05-12T02:34:05.802Z,8.15
2023-05-12T02:34:37.959Z,3.83
2023-05-12T02:35:09.981Z,3.63
2023-05-12T02:35:41.325Z,4.00
2023-05-12T02:36:12.788Z,4.80
2023-05-12T02:36:44.247Z,4.75
2023-05-12T02:37:15.799Z,5.00
2023-05-12T02:37:47.160Z,4.47
2023-05-12T02:38:18.743Z,4.25
2023-05-12T02:38:50.150Z,5.40
2023-05-12T02:39:21.594Z,4.72
2023-05-12T02:39:52.935Z,4.60
2023-05-12T02:40:24.269Z,4.50
2023-05-12T02:40:55.845Z,5.30
2023-05-12T02:41:27.262Z,4.85
2023-05-12T02:41:58.607Z,5.00
2023-05-12T02:42:35.282Z,4.20
2023-05-12T02:43:07.186Z,5.13
2023-05-12T02:43:38.584Z,4.18
2023-05-12T02:44:09.892Z,5.28
2023-05-12T02:44:41.209Z,4.90
2023-05-12T02:45:13.051Z,4.30
2023-05-12T02:45:44.469Z,4.65
2023-05-12T02:46:15.984Z,5.25
2023-05-12T02:46:47.414Z,5.07
2023-05-12T02:47:18.738Z,4.68
2023-05-12T02:47:50.205Z,5.57
2023-05-12T02:48:21.718Z,4.60
2023-05-12T02:48:53.165Z,5.15
2023-05-12T02:49:24.864Z,5.60
2023-05-12T02:49:56.954Z,4.43
2023-05-12T02:50:28.613Z,4.60
2023-05-12T02:51:00.007Z,5.43
2023-05-12T02:51:31.944Z,5.53
2023-05-12T02:52:03.660Z,4.53
2023-05-12T02:52:35.205Z,4.72
2023-05-12T02:53:06.901Z,4.23
2023-05-12T02:53:38.403Z,6.78
2023-05-12T02:54:09.952Z,5.43
2023-05-12T02:54:41.400Z,5.53
2023-05-12T02:55:12.748Z,5.57
2023-05-12T02:55:44.196Z,5.32
2023-05-12T02:56:16.227Z,5.18
2023-05-12T02:56:49.864Z,5.88
2023-05-12T02:57:21.353Z,6.65
2023-05-12T02:57:53.390Z,5.32
2023-05-12T02:58:25.221Z,6.70
2023-05-12T02:58:56.619Z,5.47
2023-05-12T02:59:28.739Z,5.90
2023-05-12T03:00:01.608Z,5.75
2023-05-12T03:00:33.070Z,6.18
2023-05-12T03:01:10.966Z,6.30
2023-05-12T03:01:43.197Z,5.22
2023-05-12T03:02:14.675Z,6.47
2023-05-12T03:02:46.155Z,7.28
2023-05-12T03:03:17.949Z,6.78
2023-05-12T03:03:49.495Z,7.80
2023-05-12T03:04:20.873Z,6.15
2023-05-12T03:04:52.204Z,6.20
2023-05-12T03:05:23.622Z,6.60
2023-05-12T03:05:55.343Z,6.45
2023-05-12T03:06:26.772Z,6.43
2023-05-12T03:06:58.149Z,8.27
2023-05-12T03:07:29.641Z,7.60
2023-05-12T03:08:01.208Z,7.32
2023-05-12T03:08:32.892Z,7.68
2023-05-12T03:09:04.350Z,7.80
2023-05-12T03:09:35.803Z,6.43
2023-05-12T03:10:09.830Z,8.40
2023-05-12T03:10:41.390Z,6.32
2023-05-12T03:11:13.041Z,7.07
2023-05-12T03:11:44.488Z,6.13
2023-05-12T03:12:16.012Z,6.63
2023-05-12T03:12:47.548Z,6.00
2023-05-12T03:13:18.949Z,6.82
2023-05-12T03:13:50.502Z,6.68
2023-05-12T03:14:21.900Z,9.23
2023-05-12T03:14:53.344Z,7.90
2023-05-12T03:15:24.950Z,7.03
2023-05-12T03:16:01.071Z,7.18
2023-05-12T03:16:32.494Z,8.77
2023-05-12T03:17:04.234Z,7.43
2023-05-12T03:17:36.515Z,6.70
2023-05-12T03:18:08.045Z,9.35
2023-05-12T03:18:39.500Z,11.73
2023-05-12T03:19:10.985Z,9.18
2023-05-12T03:19:42.589Z,10.37
2023-05-12T03:20:13.983Z,8.20
2023-05-12T03:20:45.481Z,7.18
2023-05-12T03:21:17.103Z,9.00
2023-05-12T03:21:49.329Z,8.85
2023-05-12T03:22:20.842Z,10.13
2023-05-12T03:22:52.317Z,10.50
2023-05-12T03:23:23.801Z,7.63
2023-05-12T03:23:55.185Z,7.15
2023-05-12T03:24:26.805Z,8.15
2023-05-12T03:24:58.258Z,8.03
2023-05-12T03:25:29.783Z,8.55
2023-05-12T03:26:01.487Z,7.90
2023-05-12T03:26:32.829Z,10.15
2023-05-12T03:27:04.393Z,10.02
2023-05-12T03:27:36.076Z,10.05
2023-05-12T03:28:07.474Z,9.10
2023-05-12T03:28:38.865Z,10.40
2023-05-12T03:29:10.675Z,10.25
2023-05-12T03:29:42.052Z,9.18
2023-05-12T03:30:14.546Z,10.87
2023-05-12T03:30:46.061Z,9.65
2023-05-12T03:31:17.880Z,10.88
2023-05-12T03:31:49.408Z,12.63
2023-05-12T03:32:20.857Z,9.60
2023-05-12T03:32:52.349Z,9.25
2023-05-12T03:33:23.700Z,10.90
2023-05-12T03:33:55.054Z,10.50
2023-05-12T03:34:26.400Z,9.25
2023-05-12T03:34:57.900Z,11.30
2023-05-12T03:35:29.657Z,10.67
2023-05-12T03:36:01.096Z,14.82
2023-05-12T03:36:32.534Z,12.90
2023-05-12T03:37:04.092Z,11.32
2023-05-12T03:37:35.537Z,12.13
2023-05-12T03:38:07.036Z,12.48
2023-05-12T03:38:38.455Z,14.20
2023-05-12T03:39:09.924Z,16.27
2023-05-12T03:39:41.371Z,17.33
2023-05-12T03:40:18.527Z,15.65
2023-05-12T03:40:53.248Z,13.47
2023-05-12T03:41:25.133Z,13.77
2023-05-12T03:41:56.733Z,13.55
2023-05-12T03:42:28.706Z,13.27
2023-05-12T03:43:00.125Z,15.90
2023-05-12T03:43:32.150Z,15.43
2023-05-12T03:44:05.608Z,15.60
2023-05-12T03:44:37.008Z,13.63
2023-05-12T03:45:09.574Z,13.45
2023-05-12T03:45:41.378Z,19.00
2023-05-12T03:46:12.758Z,13.60
2023-05-12T03:46:44.299Z,15.05
2023-05-12T03:47:15.896Z,15.07
2023-05-12T03:47:47.566Z,16.50
2023-05-12T03:48:19.111Z,15.20
2023-05-12T03:48:51.489Z,15.63
2023-05-12T03:49:22.969Z,15.48
2023-05-12T03:49:54.701Z,16.08
2023-05-12T03:50:26.089Z,19.67
2023-05-12T03:50:57.499Z,16.38
2023-05-12T03:51:29.005Z,17.17
2023-05-12T03:52:00.631Z,15.88
2023-05-12T03:52:32.027Z,15.75
2023-05-12T03:53:03.461Z,19.08
2023-05-12T03:53:34.897Z,15.45
2023-05-12T03:54:06.292Z,16.35
2023-05-12T03:54:38.104Z,17.10
2023-05-12T03:55:10.329Z,17.23
2023-05-12T03:55:42.354Z,17.00
2023-05-12T03:56:15.698Z,21.25
2023-05-12T03:56:47.150Z,19.30
2023-05-12T03:57:18.559Z,17.27
2023-05-12T03:57:50.265Z,18.98
2023-05-12T03:58:24.557Z,19.73
2023-05-12T03:58:57.153Z,23.52
2023-05-12T03:59:31.539Z,17.30
2023-05-12T04:00:04.996Z,16.70
2023-05-12T04:00:36.994Z,16.48
2023-05-12T04:01:08.570Z,18.77
2023-05-12T04:01:40.045Z,22.67
2023-05-12T04:02:13.280Z,18.90
2023-05-12T04:02:44.939Z,18.90
2023-05-12T04:03:17.148Z,19.27
2023-05-12T04:03:48.956Z,16.98
2023-05-12T04:04:20.680Z,18.88
2023-05-12T04:04:52.048Z,18.55
2023-05-12T04:05:23.493Z,18.45
2023-05-12T04:06:02.363Z,23.40
2023-05-12T04:06:33.814Z,20.98
2023-05-12T04:07:05.245Z,18.55
2023-05-12T04:07:37.058Z,17.13
2023-05-12T04:08:09.341Z,18.00
2023-05-12T04:08:42.101Z,20.25
2023-05-12T04:09:13.806Z,21.65
2023-05-12T04:09:45.218Z,19.13
2023-05-12T04:10:17.341Z,22.02
2023-05-12T04:10:48.838Z,19.63
2023-05-12T04:11:20.734Z,19.92
2023-05-12T04:11:52.079Z,24.08
2023-05-12T04:12:23.570Z,18.02
2023-05-12T04:12:55.309Z,22.07
2023-05-12T04:13:28.866Z,21.38
2023-05-12T04:14:00.270Z,21.70
2023-05-12T04:14:41.697Z,18.70
2023-05-12T04:15:14.992Z,21.95
2023-05-12T04:15:46.661Z,22.27
2023-05-12T04:16:18.314Z,21.95
2023-05-12T04:16:49.844Z,22.23
2023-05-12T04:17:21.322Z,21.15
2023-05-12T04:17:52.770Z,22.17
2023-05-12T04:18:25.585Z,23.37
2023-05-12T04:18:57.358Z,21.52
2023-05-12T04:19:28.842Z,23.00
2023-05-12T04:20:00.577Z,19.65
2023-05-12T04:20:31.962Z,23.73
2023-05-12T04:21:03.771Z,19.52
2023-05-12T04:21:35.408Z,23.08
2023-05-12T04:22:06.756Z,22.02
2023-05-12T04:22:38.302Z,21.70
2023-05-12T04:23:09.846Z,22.92
2023-05-12T04:23:41.497Z,21.63
2023-05-12T04:24:12.917Z,21.85
2023-05-12T04:24:44.606Z,20.45
2023-05-12T04:25:16.179Z,23.85
2023-05-12T04:25:47.895Z,20.48
2023-05-12T04:26:19.354Z,20.88
2023-05-12T04:26:51.285Z,26.42
2023-05-12T04:27:23.447Z,21.52
2023-05-12T04:27:54.804Z,25.70
2023-05-12T04:28:26.257Z,21.13
2023-05-12T04:28:57.648Z,21.00
2023-05-12T04:29:29.551Z,25.45
2023-05-12T04:30:01.315Z,26.30
2023-05-12T04:30:33.232Z,27.33
2023-05-12T04:31:04.706Z,22.83
2023-05-12T04:31:36.322Z,22.38
2023-05-12T04:32:08.222Z,22.70
2023-05-12T04:32:39.902Z,22.20
2023-05-12T04:33:11.496Z,22.38
2023-05-12T04:33:43.308Z,27.77
2023-05-12T04:34:14.657Z,23.50
2023-05-12T04:34:46.832Z,25.63
2023-05-12T04:35:18.216Z,30.60
2023-05-12T04:35:49.580Z,24.13
2023-05-12T04:36:21.030Z,26.58
2023-05-12T04:36:53.017Z,22.27
2023-05-12T04:37:24.439Z,27.80
2023-05-12T04:37:55.873Z,22.40
2023-05-12T04:38:27.564Z,31.15
2023-05-12T04:38:59.122Z,22.48
2023-05-12T04:39:30.616Z,27.17
2023-05-12T04:40:02.163Z,25.30
2023-05-12T04:40:35.005Z,24.30
2023-05-12T04:41:06.665Z,29.77
2023-05-12T04:41:38.117Z,23.45
2023-05-12T04:42:09.542Z,25.27
2023-05-12T04:42:41.037Z,25.75
2023-05-12T04:43:59.895Z,28.98
2023-05-12T04:44:03.914Z,27.40
2023-05-12T04:44:35.462Z,25.25
2023-05-12T04:45:07.866Z,27.10
2023-05-12T04:45:39.337Z,24.38
2023-05-12T04:46:10.786Z,24.30
2023-05-12T04:46:43.139Z,25.83
2023-05-12T04:47:14.602Z,26.30
2023-05-12T04:47:46.250Z,28.10
2023-05-12T04:48:17.670Z,27.67
2023-05-12T04:48:49.214Z,25.70
2023-05-12T04:49:20.615Z,28.83
2023-05-12T04:49:52.121Z,29.65
2023-05-12T04:50:23.654Z,30.83
2023-05-12T04:50:55.691Z,26.83
2023-05-12T04:51:27.070Z,27.50
2023-05-12T04:51:58.654Z,29.23
2023-05-12T04:52:30.288Z,27.40
2023-05-12T04:53:01.697Z,27.98
2023-05-12T04:53:34.667Z,30.73
2023-05-12T04:54:06.169Z,28.23
2023-05-12T04:54:38.892Z,26.95
2023-05-12T04:55:10.401Z,26.70
2023-05-12T04:55:42.760Z,28.93
2023-05-12T04:56:14.458Z,25.27
2023-05-12T04:56:46.217Z,30.48
2023-05-12T04:57:17.622Z,28.10
2023-05-12T04:57:49.345Z,29.33
2023-05-12T04:58:20.755Z,27.98
2023-05-12T04:58:52.191Z,29.92
2023-05-12T04:59:24.085Z,29.85
2023-05-12T04:59:56.438Z,31.30
2023-05-12T05:00:27.884Z,28.10
2023-05-12T05:01:00.029Z,29.70
2023-05-12T05:01:31.735Z,26.88
2023-05-12T05:02:03.338Z,28.33
2023-05-12T05:02:35.459Z,29.00
2023-05-12T05:03:07.069Z,28.88
2023-05-12T05:03:39.501Z,31.20
2023-05-12T05:04:13.294Z,27.92
2023-05-12T05:04:44.875Z,26.15
2023-05-12T05:05:16.574Z,30.75
2023-05-12T05:05:49.137Z,31.92
2023-05-12T05:06:20.687Z,34.27
2023-05-12T05:06:52.144Z,31.02
2023-05-12T05:07:23.551Z,31.83
2023-05-12T05:07:54.925Z,29.40
2023-05-12T05:08:26.368Z,32.55
2023-05-12T05:08:57.782Z,29.40
2023-05-12T05:09:29.479Z,34.03
2023-05-12T05:10:01.090Z,30.02
2023-05-12T05:10:32.630Z,34.20
2023-05-12T05:11:04.378Z,31.45
2023-05-12T05:11:35.780Z,33.17
2023-05-12T05:12:07.723Z,30.20
2023-05-12T05:12:39.054Z,35.55
2023-05-12T05:13:10.441Z,31.50
2023-05-12T05:13:41.792Z,33.15
2023-05-12T05:14:13.268Z,31.67
2023-05-12T05:14:47.582Z,35.75
2023-05-12T05:15:19.758Z,31.02
2023-05-12T05:15:52.355Z,33.60
2023-05-12T05:16:24.242Z,30.27
2023-05-12T05:16:55.910Z,28.97
2023-05-12T05:17:28.083Z,32.10
2023-05-12T05:18:01.813Z,32.63
2023-05-12T05:18:33.608Z,29.75
2023-05-12T05:19:06.657Z,31.45
2023-05-12T05:19:54.830Z,33.88
2023-05-12T05:20:29.578Z,30.50
2023-05-12T05:21:03.297Z,30.75
2023-05-12T05:21:34.682Z,32.22
2023-05-12T05:22:06.040Z,30.90
2023-05-12T05:22:39.509Z,31.63
2023-05-12T05:23:12.058Z,34.03
2023-05-12T05:23:43.483Z,32.67
2023-05-12T05:24:14.989Z,33.63
2023-05-12T05:24:46.469Z,30.95
2023-05-12T05:25:18.011Z,32.47
2023-05-12T05:25:49.489Z,30.48
2023-05-12T05:26:21.528Z,31.20
2023-05-12T05:26:52.934Z,32.75
2023-05-12T05:27:24.332Z,30.55
2023-05-12T05:27:56.120Z,30.17
2023-05-12T05:28:27.482Z,30.58
2023-05-12T05:28:59.006Z,33.40
2023-05-12T05:29:30.434Z,30.85
2023-05-12T05:30:02.568Z,30.65
2023-05-12T05:30:34.038Z,35.22
2023-05-12T05:31:06.442Z,33.42
2023-05-12T05:31:38.703Z,33.88
2023-05-12T05:32:10.139Z,28.90
2023-05-12T05:32:41.594Z,32.35
2023-05-12T05:33:13.301Z,31.23
2023-05-12T05:33:44.884Z,31.08
2023-05-12T05:34:16.498Z,32.50
2023-05-12T05:34:47.882Z,33.00
2023-05-12T05:35:19.539Z,35.88
2023-05-12T05:35:51.299Z,31.98
2023-05-12T05:36:23.033Z,32.22
2023-05-12T05:36:54.637Z,33.58
2023-05-12T05:37:26.093Z,36.50
2023-05-12T05:37:57.545Z,34.85
2023-05-12T05:38:28.974Z,32.10
2023-05-12T05:39:00.590Z,34.63
2023-05-12T05:39:32.194Z,34.80
2023-05-12T05:40:03.917Z,34.20
2023-05-12T05:40:48.905Z,34.72
2023-05-12T05:41:24.623Z,33.58
2023-05-12T05:41:57.416Z,33.10
2023-05-12T05:42:28.830Z,30.20
2023-05-12T05:43:00.373Z,29.90
2023-05-12T05:43:31.807Z,36.38
2023-05-12T05:44:03.210Z,34.63
2023-05-12T05:44:34.533Z,33.75
2023-05-12T05:45:06.582Z,35.45
2023-05-12T05:45:37.974Z,33.08
2023-05-12T05:46:09.427Z,34.85
2023-05-12T05:46:40.903Z,32.50
2023-05-12T05:47:12.332Z,33.25
2023-05-12T05:47:43.776Z,36.50
2023-05-12T05:48:15.354Z,34.83
2023-05-12T05:48:46.722Z,34.38
2023-05-12T05:49:18.967Z,34.73
2023-05-12T05:49:50.322Z,34.08
2023-05-12T05:50:21.721Z,31.80
2023-05-12T05:50:53.947Z,35.90
2023-05-12T05:51:25.409Z,32.13
2023-05-12T05:51:56.956Z,36.83
2023-05-12T05:52:28.423Z,34.47
2023-05-12T05:52:59.754Z,32.10
2023-05-12T05:53:31.347Z,36.90
2023-05-12T05:54:02.902Z,33.22
2023-05-12T05:54:34.266Z,31.97
2023-05-12T05:55:05.937Z,34.80
2023-05-12T05:55:38.108Z,39.80
2023-05-12T05:56:09.742Z,34.72
2023-05-12T05:56:41.246Z,35.10
2023-05-12T05:57:12.746Z,34.40
2023-05-12T05:57:44.094Z,36.97
2023-05-12T05:58:15.617Z,33.25
2023-05-12T05:58:47.030Z,34.25
2023-05-12T05:59:18.424Z,36.35
2023-05-12T05:59:49.848Z,32.93
2023-05-12T06:00:21.271Z,34.13
2023-05-12T06:00:52.731Z,36.47
2023-05-12T06:01:24.142Z,35.38
2023-05-12T06:01:55.658Z,33.80
2023-05-12T06:02:27.930Z,35.63
2023-05-12T06:02:59.465Z,34.40
2023-05-12T06:03:31.413Z,34.45
2023-05-12T06:04:02.875Z,32.30
2023-05-12T06:04:34.370Z,32.95
2023-05-12T06:05:07.115Z,49.67
2023-05-12T06:05:38.816Z,32.97
2023-05-12T06:06:10.292Z,34.85
2023-05-12T06:06:41.751Z,34.95
2023-05-12T06:07:13.168Z,35.70
2023-05-12T06:07:44.564Z,33.60
2023-05-12T06:08:16.035Z,34.70
2023-05-12T06:08:47.533Z,36.53
2023-05-12T06:09:18.981Z,32.55
2023-05-12T06:09:50.395Z,36.70
2023-05-12T06:10:22.221Z,35.07
2023-05-12T06:10:53.856Z,34.08
2023-05-12T06:11:25.611Z,36.03
2023-05-12T06:11:56.972Z,36.92
2023-05-12T06:12:28.479Z,33.72
2023-05-12T06:12:59.897Z,36.80
2023-05-12T06:13:31.356Z,30.33
2023-05-12T06:14:02.727Z,35.25
2023-05-12T06:14:34.141Z,36.38
2023-05-12T06:15:06.054Z,33.88
2023-05-12T06:15:37.693Z,34.73
2023-05-12T06:16:09.142Z,33.75
2023-05-12T06:16:40.653Z,38.00
2023-05-12T06:17:12.259Z,34.92
2023-05-12T06:17:43.988Z,32.60
2023-05-12T06:18:16.204Z,31.55
2023-05-12T06:18:47.639Z,33.08
2023-05-12T06:19:19.077Z,35.28
2023-05-12T06:19:51.001Z,35.90
2023-05-12T06:20:23.369Z,32.60
2023-05-12T06:20:54.975Z,34.20
2023-05-12T06:21:26.373Z,33.92
2023-05-12T06:21:58.075Z,31.42
2023-05-12T06:22:29.417Z,33.95
2023-05-12T06:23:00.841Z,35.92
2023-05-12T06:23:32.419Z,32.72
2023-05-12T06:24:03.775Z,35.97
2023-05-12T06:24:35.116Z,35.92
2023-05-12T06:25:06.884Z,33.60
2023-05-12T06:25:38.264Z,37.10
2023-05-12T06:26:09.736Z,33.73
2023-05-12T06:26:41.093Z,33.28
2023-05-12T06:27:12.909Z,32.00
2023-05-12T06:27:44.548Z,32.90
2023-05-12T06:28:15.976Z,32.40
2023-05-12T06:28:47.758Z,34.42
2023-05-12T06:29:21.144Z,33.00
2023-05-12T06:29:52.543Z,30.80
2023-05-12T06:30:24.051Z,34.95
2023-05-12T06:30:55.464Z,35.60
2023-05-12T06:31:26.883Z,32.47
2023-05-12T06:31:58.304Z,35.92
2023-05-12T06:32:29.858Z,33.97
2023-05-12T06:33:01.487Z,34.28
2023-05-12T06:33:32.968Z,37.53
2023-05-12T06:34:04.630Z,34.28
2023-05-12T06:34:36.069Z,30.95
2023-05-12T06:35:07.915Z,34.92
2023-05-12T06:35:39.305Z,33.80
2023-05-12T06:36:12.121Z,31.73
2023-05-12T06:36:44.282Z,34.53
2023-05-12T06:37:15.897Z,34.70
2023-05-12T06:37:50.813Z,34.10
2023-05-12T06:38:22.226Z,31.40
2023-05-12T06:38:53.938Z,32.88
2023-05-12T06:39:25.387Z,33.22
2023-05-12T06:39:56.918Z,33.72
2023-05-12T06:40:28.316Z,29.45
2023-05-12T06:40:59.804Z,32.80
2023-05-12T06:41:32.220Z,35.15
2023-05-12T06:42:04.024Z,36.77
2023-05-12T06:42:35.584Z,33.08
2023-05-12T06:43:07.304Z,37.58
2023-05-12T06:43:38.905Z,34.35
2023-05-12T06:44:12.726Z,31.77
2023-05-12T06:44:44.158Z,35.15
2023-05-12T06:45:15.851Z,34.40
2023-05-12T06:45:47.290Z,35.92
2023-05-12T06:46:18.945Z,36.15
2023-05-12T06:46:50.522Z,34.22
2023-05-12T06:47:21.949Z,34.67
2023-05-12T06:47:53.437Z,33.35
2023-05-12T06:48:24.916Z,35.45
2023-05-12T06:48:56.369Z,35.13
2023-05-12T06:49:27.909Z,30.23
2023-05-12T06:49:59.242Z,37.42
2023-05-12T06:50:30.592Z,33.05
2023-05-12T06:51:02.080Z,33.03
2023-05-12T06:51:34.584Z,29.90
2023-05-12T06:52:06.759Z,34.63
2023-05-12T06:52:38.474Z,33.17
2023-05-12T06:53:09.891Z,33.88
2023-05-12T06:53:41.452Z,35.17
2023-05-12T06:54:12.795Z,33.25
2023-05-12T06:54:44.155Z,33.83
2023-05-12T06:55:19.857Z,34.85
2023-05-12T06:55:53.326Z,33.17
2023-05-12T06:56:24.898Z,31.75
2023-05-12T06:56:56.314Z,30.55
2023-05-12T06:57:27.773Z,33.53
2023-05-12T06:57:59.334Z,30.17
2023-05-12T06:58:30.850Z,31.77
2023-05-12T06:59:03.586Z,34.35
2023-05-12T06:59:35.179Z,32.15
2023-05-12T07:00:09.729Z,33.42